»·PEaware :: SWA4709 KLAS-KDEN

SWA4709 :: KLAS-KDEN

FLIGHT INFORMATION

Flight Status: Arrived
Operator:
Southwest Airlines
More flights by this operator :: More flights under this callsign
Pilot: Alfredo R. (12181)
Aircraft: BOEING 737-800
(B738)
More flights by this aircraft type
Origin: KLAS McCarran Intl
United States
Destination: KDEN Denver Intl
United States
More flights between these airports :: More routes between these airports
Route: STAAV8 DVC WOLLF CREDE3
File this flight plan on PilotEdge
Remarks:
Altitude:
(Current/Filed)
37,000ft
Speed:
(Current/Filed)
470kts
Departed: 02-Dec-17 04:10 PM
Arrived: 02-Dec-17 05:39 PM
Distance/Time
Traveled:
545nm/1:29
Distance/Time
To Go:
Arrived

Flight Plot

Page will automatically refresh every two minutes.

Flight plan parsing failed; only flown route is shown


Map Options




Map Legend


Flown Route
Filed Route
Departure Airport
Arrival Airport
Navaid (VOR, NDB)
Fix

Horizontal Profiles

Position Reports

Time Latitude Longitude Heading Altitude Ground
Speed
02-Dec-17 15:46 36.079754 -115.146262 342 2148ft 0kts
02-Dec-17 15:47 36.079754 -115.146262 342 2148ft 0kts
02-Dec-17 15:48 36.079754 -115.146262 342 2148ft 0kts
02-Dec-17 15:49 36.079754 -115.146262 342 2148ft 0kts
02-Dec-17 15:50 36.079754 -115.146262 342 2148ft 0kts
02-Dec-17 15:51 36.079754 -115.146262 342 2148ft 0kts
02-Dec-17 15:52 36.079754 -115.146262 342 2148ft 0kts
02-Dec-17 15:53 36.079754 -115.146262 342 2148ft 0kts
02-Dec-17 15:54 36.079754 -115.146261 342 2148ft 0kts
02-Dec-17 15:55 36.079738 -115.146256 343 2148ft 1kts
02-Dec-17 15:56 36.079269 -115.145882 285 2149ft 2kts
02-Dec-17 15:57 36.079270 -115.145032 247 2149ft 2kts
02-Dec-17 15:58 36.079538 -115.144877 173 2149ft 0kts
02-Dec-17 15:59 36.079538 -115.144877 173 2148ft 0kts
02-Dec-17 16:00 36.079538 -115.144877 173 2148ft 0kts
02-Dec-17 16:01 36.079538 -115.144877 173 2148ft 0kts
02-Dec-17 16:02 36.079516 -115.144875 174 2149ft 0kts
02-Dec-17 16:03 36.079283 -115.144862 178 2148ft 1kts
02-Dec-17 16:04 36.079029 -115.144887 184 2148ft 0kts
02-Dec-17 16:05 36.078971 -115.144892 184 2149ft 0kts
02-Dec-17 16:06 36.078821 -115.144903 182 2149ft 1kts
02-Dec-17 16:07 36.078357 -115.144555 102 2149ft 2kts
02-Dec-17 16:08 36.078239 -115.142019 89 2148ft 11kts
02-Dec-17 16:09 36.078250 -115.137212 90 2149ft 16kts
02-Dec-17 16:10 36.078261 -115.131259 90 2149ft 18kts
02-Dec-17 16:11 36.078262 -115.125384 90 2149ft 16kts
02-Dec-17 16:12 36.077574 -115.121713 129 2148ft 5kts
02-Dec-17 16:13 36.077397 -115.121476 144 2148ft 0kts
02-Dec-17 16:14 36.076421 -115.121723 254 2148ft 9kts
02-Dec-17 16:15 36.076416 -115.131195 269 2149ft 87kts
02-Dec-17 16:16 36.076403 -115.183609 271 3165ft 171kts
02-Dec-17 16:17 36.076953 -115.249536 292 4744ft 215kts
02-Dec-17 16:18 36.126091 -115.292950 344 7043ft 246kts
02-Dec-17 16:19 36.182574 -115.246076 75 8957ft 292kts
02-Dec-17 16:20 36.196746 -115.142119 92 10651ft 329kts
02-Dec-17 16:21 36.197715 -115.025344 91 12950ft 346kts
02-Dec-17 16:22 36.198950 -114.905030 90 15270ft 357kts
02-Dec-17 16:23 36.200347 -114.780843 90 17820ft 370kts
02-Dec-17 16:24 36.198636 -114.652298 92 20091ft 384kts
02-Dec-17 16:25 36.196882 -114.520352 92 21892ft 397kts
02-Dec-17 16:26 36.195199 -114.381797 91 23444ft 410kts
02-Dec-17 16:27 36.194132 -114.239304 86 24837ft 421kts
02-Dec-17 16:28 36.210907 -114.094511 82 26195ft 430kts
02-Dec-17 16:29 36.226874 -113.953648 82 27611ft 431kts
02-Dec-17 16:30 36.243737 -113.806395 82 28947ft 430kts
02-Dec-17 16:31 36.260762 -113.659339 82 30081ft 431kts
02-Dec-17 16:32 36.277917 -113.512604 82 31081ft 432kts
02-Dec-17 16:33 36.295245 -113.365947 81 31976ft 433kts
02-Dec-17 16:34 36.314508 -113.220053 70 32708ft 433kts
02-Dec-17 16:35 36.355502 -113.098883 66 33340ft 432kts
02-Dec-17 16:36 36.406473 -112.945465 65 34045ft 432kts
02-Dec-17 16:37 36.452333 -112.807923 65 34618ft 432kts
02-Dec-17 16:38 36.498278 -112.670607 65 35259ft 429kts
02-Dec-17 16:39 36.544159 -112.533901 65 35720ft 430kts
02-Dec-17 16:40 36.590269 -112.396962 64 36145ft 430kts
02-Dec-17 16:41 36.636293 -112.260867 65 36493ft 430kts
02-Dec-17 16:42 36.682649 -112.124123 64 36819ft 429kts
02-Dec-17 16:43 36.729051 -111.987692 64 37065ft 430kts
02-Dec-17 16:44 36.776275 -111.849317 64 37060ft 440kts
02-Dec-17 16:45 36.798322 -111.784864 64 37067ft 444kts
02-Dec-17 16:46 36.871396 -111.571907 64 37064ft 461kts
02-Dec-17 16:47 36.922627 -111.423246 64 37065ft 474kts
02-Dec-17 16:48 36.975584 -111.270245 64 37055ft 486kts
02-Dec-17 16:49 37.029624 -111.114557 64 37054ft 496kts
02-Dec-17 16:50 37.084737 -110.956374 64 37050ft 496kts
02-Dec-17 16:51 37.139689 -110.799224 64 37049ft 496kts
02-Dec-17 16:52 37.194929 -110.641843 64 37051ft 495kts
02-Dec-17 16:53 37.250442 -110.484287 64 37051ft 495kts
02-Dec-17 16:54 37.306521 -110.325723 64 37208ft 502kts
02-Dec-17 16:55 37.363150 -110.166262 64 37203ft 500kts
02-Dec-17 16:56 37.419953 -110.006902 64 37210ft 501kts
02-Dec-17 16:57 37.476503 -109.848703 63 37205ft 500kts
02-Dec-17 16:58 37.533810 -109.689041 63 37209ft 500kts
02-Dec-17 16:59 37.591171 -109.529807 63 37216ft 500kts
02-Dec-17 17:00 37.648608 -109.370968 63 37212ft 499kts
02-Dec-17 17:01 37.706336 -109.212014 64 37202ft 499kts
02-Dec-17 17:02 37.763875 -109.054051 63 37197ft 500kts
02-Dec-17 17:03 37.824936 -108.896151 55 37210ft 501kts
02-Dec-17 17:04 37.896564 -108.747936 56 37143ft 501kts
02-Dec-17 17:05 37.968543 -108.597057 56 37145ft 502kts
02-Dec-17 17:06 38.040620 -108.446389 56 37148ft 502kts
02-Dec-17 17:07 38.111946 -108.297758 56 37134ft 502kts
02-Dec-17 17:08 38.181053 -108.154069 56 37144ft 504kts
02-Dec-17 17:09 38.253645 -108.003498 56 37249ft 503kts
02-Dec-17 17:10 38.327314 -107.851096 55 37123ft 506kts
02-Dec-17 17:11 38.401290 -107.698455 55 37123ft 505kts
02-Dec-17 17:12 38.473313 -107.546925 58 37132ft 507kts
02-Dec-17 17:13 38.537980 -107.399776 58 37171ft 506kts
02-Dec-17 17:14 38.606868 -107.244179 58 37183ft 506kts
02-Dec-17 17:15 38.676014 -107.088343 58 37185ft 506kts
02-Dec-17 17:16 38.744234 -106.934981 57 36298ft 495kts
02-Dec-17 17:17 38.810559 -106.786373 57 34507ft 485kts
02-Dec-17 17:18 38.877748 -106.637040 55 32826ft 490kts
02-Dec-17 17:19 38.946957 -106.487527 55 31118ft 490kts
02-Dec-17 17:20 39.013960 -106.342738 56 29405ft 472kts
02-Dec-17 17:21 39.079647 -106.197741 56 27657ft 479kts
02-Dec-17 17:22 39.143427 -106.054777 57 25873ft 455kts
02-Dec-17 17:23 39.203815 -105.917212 57 24346ft 435kts
02-Dec-17 17:24 39.255011 -105.800877 56 23057ft 426kts
02-Dec-17 17:25 39.312504 -105.670520 56 21551ft 408kts
02-Dec-17 17:26 39.365523 -105.549372 56 20072ft 383kts
02-Dec-17 17:27 39.417325 -105.438997 50 18876ft 359kts
02-Dec-17 17:28 39.472220 -105.335414 51 17765ft 354kts
02-Dec-17 17:29 39.524671 -105.235650 52 16794ft 347kts
02-Dec-17 17:30 39.576091 -105.137343 52 15829ft 342kts
02-Dec-17 17:31 39.623303 -105.046772 52 14927ft 336kts
02-Dec-17 17:32 39.673150 -104.951199 52 13962ft 329kts
02-Dec-17 17:33 39.723567 -104.859913 33 12988ft 323kts
02-Dec-17 17:34 39.806684 -104.840644 359 12106ft 321kts
02-Dec-17 17:35 39.890773 -104.839435 1 11105ft 300kts
02-Dec-17 17:36 39.965018 -104.839450 0 10135ft 251kts
02-Dec-17 17:37 40.033726 -104.840233 0 9109ft 252kts
02-Dec-17 17:38 40.075976 -104.790670 77 8005ft 237kts
02-Dec-17 17:39 40.053228 -104.725855 137 6934ft 194kts
02-Dec-17 17:40 40.016784 -104.685174 169 6357ft 188kts
02-Dec-17 17:41 39.971964 -104.685817 179 6037ft 164kts
02-Dec-17 17:42 39.929124 -104.686393 179 5966ft 166kts
02-Dec-17 17:43 39.888022 -104.686907 179 5439ft 106kts
02-Dec-17 17:44 39.876654 -104.685874 152 5439ft 9kts
02-Dec-17 17:45 39.874516 -104.684856 170 5438ft 9kts
02-Dec-17 17:46 39.871428 -104.683765 181 5439ft 16kts
02-Dec-17 17:47 39.866437 -104.683826 180 5439ft 20kts
02-Dec-17 17:48 39.864215 -104.681964 90 5438ft 11kts
02-Dec-17 17:49 39.864162 -104.677190 90 5439ft 14kts
02-Dec-17 17:50 39.863605 -104.675792 180 5439ft 2kts
02-Dec-17 17:51 39.863517 -104.675794 180 5439ft 0kts
02-Dec-17 17:52 39.863517 -104.675794 180 5439ft 0kts
02-Dec-17 17:53 39.863517 -104.675794 180 5439ft 0kts

Navigation Log

Ident Type
Flight plan parsing failed, navigation log unavailable